Time;durP1;ratioP1;P1;durP2;ratioP2;P2;SDS_P1;SDS_P2;PMS_P1;PMS_P2;Temp;Humidity;BMP_temperature;BMP_pressure;BME280_temperature;BME280_humidity;BME280_pressure;Samples;Min_cycle;Max_cycle;Signal;HPM_P1;HPM_P2
2024/01/19 00:00:04;;;;;;;28.80;20.50;;;;;;;6.98;61.45;98631.64;105514;1260;60543;-80
2024/01/19 00:02:32;;;;;;;14.60;7.70;;;;;;;7.01;61.36;98632.89;105578;1256;60600;-80
2024/01/19 00:04:59;;;;;;;27.80;20.50;;;;;;;7.04;61.47;98634.02;105581;1256;64934;-80
2024/01/19 00:07:27;;;;;;;18.50;8.90;;;;;;;7.04;61.60;98630.45;107081;1256;60396;-82
2024/01/19 00:09:55;;;;;;;28.80;20.90;;;;;;;7.06;61.62;98629.98;105810;1258;63700;-86
2024/01/19 00:12:25;;;;;;;16.90;8.30;;;;;;;7.05;61.62;98631.63;105700;1259;60497;-83
2024/01/19 00:14:52;;;;;;;16.80;10.10;;;;;;;7.03;61.58;98629.90;105507;1260;60534;-84
2024/01/19 00:17:20;;;;;;;17.20;8.50;;;;;;;7.02;61.62;98639.05;108210;1256;64874;-80
2024/01/19 00:19:47;;;;;;;40.30;27.60;;;;;;;7.01;61.57;98644.89;105621;1257;61511;-80
2024/01/19 00:22:15;;;;;;;17.90;8.60;;;;;;;6.99;61.62;98646.64;105534;1261;63748;-81
2024/01/19 00:24:43;;;;;;;30.80;20.70;;;;;;;7.02;61.51;98644.86;107010;1258;60513;-83
2024/01/19 00:27:10;;;;;;;14.80;6.00;;;;;;;7.05;61.33;98647.30;105622;1257;238126;-80
2024/01/19 00:42:43;;;;;;;18.90;10.70;;;;;;;7.26;61.60;98649.84;102779;1288;603780;-71
2024/01/19 00:45:11;;;;;;;32.10;20.90;;;;;;;7.96;59.93;98647.44;104281;1268;138420;-65
2024/01/19 00:47:38;;;;;;;28.90;21.60;;;;;;;8.00;59.59;98641.30;104446;1267;59259;-68
2024/01/19 00:50:08;;;;;;;20.10;9.60;;;;;;;7.98;59.56;98635.00;104586;1266;63288;-70
2024/01/19 00:52:36;;;;;;;30.70;21.50;;;;;;;7.90;59.44;98634.25;104714;1266;61377;-72
2024/01/19 00:55:05;;;;;;;32.80;21.60;;;;;;;7.78;59.52;98631.24;104902;1269;63706;-61
2024/01/19 00:57:32;;;;;;;19.40;10.20;;;;;;;7.70;59.73;98630.25;104869;1266;59338;-62
2024/01/19 01:00:00;;;;;;;29.50;21.00;;;;;;;7.64;59.92;98630.64;104769;1269;59462;-61
2024/01/19 01:02:28;;;;;;;17.60;7.70;;;;;;;7.59;59.96;98627.45;104388;1267;63473;-61
2024/01/19 01:04:56;;;;;;;17.00;8.50;;;;;;;7.53;59.58;98634.42;104949;1267;62129;-60
2024/01/19 01:07:23;;;;;;;30.10;21.00;;;;;;;7.45;59.25;98644.46;104394;1269;63753;-61
2024/01/19 01:09:51;;;;;;;17.20;7.30;;;;;;;7.37;59.54;98645.91;104401;1267;62008;-61
2024/01/19 01:12:18;;;;;;;30.90;22.50;;;;;;;7.30;59.85;98643.61;104337;1271;59564;-61
2024/01/19 01:14:47;;;;;;;15.60;8.50;;;;;;;7.23;60.13;98638.32;104376;1266;64065;-61
2024/01/19 01:17:15;;;;;;;31.90;21.70;;;;;;;7.27;60.21;98636.04;104420;1272;60285;-61
2024/01/19 01:19:42;;;;;;;20.50;10.70;;;;;;;7.31;60.22;98637.80;104387;1272;62558;-63
2024/01/19 01:22:13;;;;;;;16.70;9.40;;;;;;;7.25;60.19;98643.52;104501;1267;59820;-60
2024/01/19 01:24:40;;;;;;;21.30;10.90;;;;;;;7.20;60.27;98650.17;104436;1266;59823;-61
2024/01/19 01:27:08;;;;;;;30.50;23.30;;;;;;;7.13;60.31;98657.64;104479;1267;62901;-61
2024/01/19 01:29:36;;;;;;;16.70;8.50;;;;;;;7.08;60.27;98663.23;104429;1269;60488;-61
2024/01/19 01:32:04;;;;;;;15.30;6.50;;;;;;;7.11;60.44;98667.89;104405;1270;63903;-61
2024/01/19 01:34:31;;;;;;;28.30;20.80;;;;;;;7.18;60.46;98668.73;104782;1270;59846;-61
2024/01/19 01:37:00;;;;;;;12.50;5.40;;;;;;;7.22;60.49;98670.67;104875;1271;59580;-61
2024/01/19 01:39:27;;;;;;;31.70;22.10;;;;;;;7.16;60.73;98672.67;104457;1267;62858;-61
2024/01/19 01:41:55;;;;;;;16.20;8.20;;;;;;;7.15;61.04;98674.86;104379;1266;60455;-62
2024/01/19 01:44:22;;;;;;;24.30;9.70;;;;;;;7.18;61.35;98674.90;104962;1271;63736;-61
2024/01/19 01:46:50;;;;;;;30.40;22.10;;;;;;;7.23;61.34;98679.35;104488;1270;59910;-62
2024/01/19 01:49:18;;;;;;;27.50;12.10;;;;;;;7.20;61.03;98680.63;104428;1272;59657;-61
2024/01/19 01:51:46;;;;;;;19.90;9.50;;;;;;;7.15;61.05;98686.51;104346;1266;64344;-63
2024/01/19 01:54:14;;;;;;;32.20;24.00;;;;;;;7.11;61.00;98689.14;104352;1270;61292;-61
2024/01/19 01:56:41;;;;;;;22.40;9.40;;;;;;;7.09;61.03;98691.48;104534;1270;63874;-63
2024/01/19 01:59:09;;;;;;;35.00;22.00;;;;;;;7.13;61.10;98694.72;104498;1267;59716;-63
2024/01/19 02:01:36;;;;;;;19.20;9.40;;;;;;;7.20;61.15;98695.44;104478;1272;59591;-64
2024/01/19 02:04:08;;;;;;;20.40;8.70;;;;;;;7.30;61.14;98695.77;105000;1263;64297;-63
2024/01/19 02:06:35;;;;;;;25.30;11.90;;;;;;;7.38;61.24;98697.84;104739;1271;70585;-63
2024/01/19 02:09:03;;;;;;;41.10;26.50;;;;;;;7.40;61.35;98702.13;105124;1263;63811;-62
2024/01/19 02:11:32;;;;;;;23.70;12.50;;;;;;;7.41;61.37;98704.18;104997;1268;59772;-63
2024/01/19 02:14:00;;;;;;;26.30;11.50;;;;;;;7.41;61.31;98706.44;105152;1268;59570;-64
2024/01/19 02:16:27;;;;;;;42.30;28.30;;;;;;;7.39;61.32;98706.61;104667;1264;64063;-61
2024/01/19 02:18:55;;;;;;;26.00;12.10;;;;;;;7.36;61.28;98709.33;104668;1263;61364;-66
2024/01/19 02:21:23;;;;;;;27.00;12.60;;;;;;;7.30;61.13;98711.68;105241;1264;64403;-62
2024/01/19 02:24:03;;;;;;;23.70;12.50;;;;;;;7.21;61.31;98712.48;104686;1264;59899;-62
2024/01/19 02:26:32;;;;;;;36.10;24.20;;;;;;;7.19;61.28;98710.53;105162;1269;59672;-62
2024/01/19 02:29:00;;;;;;;21.20;8.70;;;;;;;7.21;61.37;98717.52;105287;1266;64125;-62
2024/01/19 02:31:28;;;;;;;18.10;8.40;;;;;;;7.24;61.47;98720.87;104689;1268;60207;-62
2024/01/19 02:33:56;;;;;;;39.70;25.70;;;;;;;7.27;61.55;98718.23;104885;1265;64313;-64
2024/01/19 02:36:23;;;;;;;19.70;10.40;;;;;;;7.28;61.83;98718.10;105544;1263;59713;-63
2024/01/19 02:38:51;;;;;;;24.80;11.30;;;;;;;7.30;61.84;98721.77;104881;1266;59629;-62
2024/01/19 02:41:19;;;;;;;28.40;12.50;;;;;;;7.27;61.87;98725.35;104887;1265;63078;-63
2024/01/19 02:43:46;;;;;;;35.00;25.00;;;;;;;7.22;61.95;98733.08;104800;1263;61366;-61
2024/01/19 02:46:14;;;;;;;20.70;10.40;;;;;;;7.18;62.10;98739.23;105644;1265;62520;-61
2024/01/19 02:48:42;;;;;;;26.10;11.80;;;;;;;7.21;62.03;98738.26;105079;1260;60027;-64
2024/01/19 02:51:10;;;;;;;17.80;8.30;;;;;;;7.22;62.04;98738.69;104747;1261;59698;-65
2024/01/19 02:53:37;;;;;;;20.70;9.90;;;;;;;7.26;62.07;98738.46;105316;1260;64584;-65
2024/01/19 02:56:05;;;;;;;36.40;25.90;;;;;;;7.39;61.83;98741.65;105055;1265;60092;-64
2024/01/19 02:58:34;;;;;;;23.10;11.70;;;;;;;7.27;62.11;98745.58;104784;1265;63784;-62
2024/01/19 03:01:02;;;;;;;25.20;11.20;;;;;;;7.16;62.54;98749.86;105308;1260;59721;-62
2024/01/19 03:03:30;;;;;;;22.60;10.20;;;;;;;7.12;62.51;98753.06;104911;1260;59334;-64
2024/01/19 03:05:58;;;;;;;20.40;9.90;;;;;;;7.08;62.61;98755.85;104948;1262;64179;-65
2024/01/19 03:08:25;;;;;;;25.30;10.00;;;;;;;7.02;62.73;98758.69;104871;1265;61313;-65
2024/01/19 03:10:55;;;;;;;24.70;10.70;;;;;;;6.95;62.75;98762.96;104959;1261;63692;-62
2024/01/19 03:13:22;;;;;;;23.80;12.10;;;;;;;6.88;62.90;98765.12;104847;1265;59849;-62
2024/01/19 03:15:50;;;;;;;36.50;23.20;;;;;;;6.89;62.90;98768.55;104842;1266;59648;-63
2024/01/19 03:18:18;;;;;;;20.20;9.70;;;;;;;6.94;62.88;98769.71;104860;1262;64101;-63
2024/01/19 03:20:46;;;;;;;14.80;8.10;;;;;;;6.97;63.00;98773.05;104849;1265;60536;-63
2024/01/19 03:23:14;;;;;;;22.60;8.20;;;;;;;7.03;63.06;98775.16;104904;1260;63768;-62
2024/01/19 03:25:42;;;;;;;35.90;23.10;;;;;;;7.07;63.05;98775.61;104982;1259;59563;-59
2024/01/19 03:28:09;;;;;;;24.10;9.50;;;;;;;7.11;63.07;98780.91;105817;1262;59651;-62
2024/01/19 03:30:37;;;;;;;34.00;23.90;;;;;;;7.10;62.91;98786.19;104908;1266;64575;-63
2024/01/19 03:33:05;;;;;;;20.40;8.80;;;;;;;7.08;63.01;98791.80;104964;1263;61350;-63
2024/01/19 03:35:32;;;;;;;23.30;10.00;;;;;;;7.08;63.11;98799.14;105287;1263;63698;-62
2024/01/19 03:38:00;;;;;;;22.00;10.10;;;;;;;7.04;63.02;98801.75;104842;1266;62279;-67
2024/01/19 03:40:28;;;;;;;19.80;10.30;;;;;;;6.99;63.12;98806.16;104837;1265;59268;-64
2024/01/19 03:42:55;;;;;;;21.00;9.70;;;;;;;6.94;63.15;98808.02;104812;1265;64093;-68
2024/01/19 03:45:23;;;;;;;25.80;11.60;;;;;;;6.94;63.03;98813.84;105640;1264;60198;-68
2024/01/19 03:47:50;;;;;;;29.50;19.70;;;;;;;6.95;63.04;98814.77;104823;1263;71393;-65
2024/01/19 03:50:18;;;;;;;24.60;9.60;;;;;;;6.97;63.16;98815.27;104893;1260;60145;-65
2024/01/19 03:52:46;;;;;;;18.30;11.00;;;;;;;6.99;63.31;98822.45;104810;1265;59650;-63
2024/01/19 03:55:15;;;;;;;36.10;22.30;;;;;;;6.97;63.44;98822.29;104813;1262;62903;-64
2024/01/19 03:57:45;;;;;;;21.10;9.00;;;;;;;6.93;63.50;98826.58;104877;1267;61541;-61
2024/01/19 04:00:13;;;;;;;19.50;10.50;;;;;;;6.92;63.32;98826.70;104811;1260;63696;-61
2024/01/19 04:02:41;;;;;;;25.30;11.50;;;;;;;6.87;63.36;98831.31;104888;1266;59822;-61
2024/01/19 04:05:08;;;;;;;32.00;21.40;;;;;;;6.87;63.33;98840.04;104842;1265;59563;-63
2024/01/19 04:07:36;;;;;;;21.90;9.70;;;;;;;6.88;63.37;98849.37;104774;1260;64164;-61
2024/01/19 04:10:04;;;;;;;18.60;8.80;;;;;;;6.87;63.45;98851.84;105300;1260;62039;-61
2024/01/19 04:12:32;;;;;;;19.30;10.60;;;;;;;6.86;63.61;98854.21;105094;1260;63758;-66
2024/01/19 04:15:03;;;;;;;19.70;10.30;;;;;;;6.82;63.85;98858.39;104919;1260;59579;-62
2024/01/19 04:17:32;;;;;;;33.00;21.90;;;;;;;6.77;63.93;98862.71;105309;1263;59739;-64
2024/01/19 04:20:00;;;;;;;15.40;8.40;;;;;;;6.74;64.03;98870.82;104845;1266;62918;-66
2024/01/19 04:22:27;;;;;;;12.50;5.90;;;;;;;6.77;64.02;98882.88;104859;1264;61354;-62
2024/01/19 04:24:55;;;;;;;16.40;8.10;;;;;;;6.78;63.81;98887.02;105619;1260;63894;-67
2024/01/19 04:27:22;;;;;;;25.30;17.60;;;;;;;6.80;63.95;98890.67;104782;1262;59756;-67
2024/01/19 04:29:50;;;;;;;18.40;10.00;;;;;;;6.87;63.97;98892.80;104875;1260;59678;-68
2024/01/19 04:32:18;;;;;;;19.30;10.10;;;;;;;6.90;64.09;98897.79;104874;1264;62896;-67
2024/01/19 04:34:45;;;;;;;30.30;20.60;;;;;;;6.93;64.17;98906.50;104828;1263;61509;-68
2024/01/19 04:37:14;;;;;;;17.10;8.30;;;;;;;6.93;64.04;98913.95;104795;1266;64428;-68
2024/01/19 04:39:41;;;;;;;23.40;9.70;;;;;;;6.89;64.00;98917.73;104932;1266;59641;-68
2024/01/19 04:42:11;;;;;;;18.20;9.80;;;;;;;6.81;63.89;98925.41;104864;1263;59740;-68
2024/01/19 04:44:39;;;;;;;16.00;7.70;;;;;;;6.78;63.88;98935.50;105075;1263;64155;-63
2024/01/19 04:47:07;;;;;;;24.20;15.90;;;;;;;6.74;64.08;98942.31;105091;1263;61465;-64
2024/01/19 04:49:34;;;;;;;14.60;6.10;;;;;;;6.65;64.43;98940.26;104920;1264;63733;-63
2024/01/19 04:52:02;;;;;;;14.70;6.00;;;;;;;6.57;64.67;98949.50;104871;1266;60608;-66
2024/01/19 04:54:29;;;;;;;13.20;7.70;;;;;;;6.54;64.68;98959.01;104834;1260;60591;-59
2024/01/19 04:56:57;;;;;;;13.20;5.30;;;;;;;6.44;65.05;98957.70;104789;1265;65400;-61
2024/01/19 04:59:24;;;;;;;13.10;5.90;;;;;;;6.35;65.29;98963.02;104795;1263;61694;-57
2024/01/19 05:01:52;;;;;;;13.50;7.00;;;;;;;6.22;65.58;98968.63;104846;1264;63798;-59
2024/01/19 05:04:20;;;;;;;12.80;5.60;;;;;;;6.19;65.71;98981.09;104722;1266;60502;-60
2024/01/19 05:06:47;;;;;;;11.70;5.50;;;;;;;6.16;65.73;98988.28;105638;1263;60363;-60
2024/01/19 05:09:15;;;;;;;11.30;4.70;;;;;;;6.09;65.99;98993.63;104779;1261;63896;-61
2024/01/19 05:11:43;;;;;;;9.00;4.80;;;;;;;6.02;66.17;98993.69;104851;1263;60559;-61
2024/01/19 05:14:11;;;;;;;9.00;3.80;;;;;;;5.99;66.18;98995.85;104815;1260;62527;-60
2024/01/19 05:16:39;;;;;;;7.40;3.00;;;;;;;5.93;66.38;98998.34;104890;1265;60548;-59
2024/01/19 05:19:08;;;;;;;8.90;4.60;;;;;;;5.90;66.45;99003.17;104931;1265;60655;-60
2024/01/19 05:21:36;;;;;;;8.40;3.60;;;;;;;5.85;66.59;99010.04;104699;1262;63871;-61
2024/01/19 05:24:03;;;;;;;7.90;3.00;;;;;;;5.83;66.49;99018.52;105133;1265;61527;-64
2024/01/19 05:26:31;;;;;;;6.70;3.50;;;;;;;5.83;66.50;99030.04;104787;1266;62624;-60
2024/01/19 05:28:59;;;;;;;7.80;3.50;;;;;;;5.78;66.64;99036.86;104754;1261;60362;-60
2024/01/19 05:31:26;;;;;;;9.10;6.30;;;;;;;5.73;66.70;99044.88;104821;1273;60606;-60
2024/01/19 05:33:54;;;;;;;6.40;2.60;;;;;;;5.73;66.72;99053.45;104547;1262;64926;-58
2024/01/19 05:36:23;;;;;;;6.20;3.40;;;;;;;5.73;66.64;99060.76;105243;1266;61685;-69
2024/01/19 05:38:51;;;;;;;7.60;3.30;;;;;;;5.67;66.73;99073.45;104692;1261;70721;-62
2024/01/19 05:41:20;;;;;;;6.00;3.30;;;;;;;5.65;66.71;99081.27;104907;1266;60521;-68
2024/01/19 05:43:47;;;;;;;7.20;3.20;;;;;;;5.63;66.42;99086.30;108751;1263;58566;-69
2024/01/19 05:46:15;;;;;;;6.90;2.80;;;;;;;5.60;66.23;99094.83;108762;1260;63655;-69
2024/01/19 05:48:42;;;;;;;10.60;4.70;;;;;;;5.51;66.19;99101.83;108681;1260;61378;-75
2024/01/19 05:51:14;;;;;;;8.10;3.40;;;;;;;5.50;65.95;99111.27;108730;1260;64217;-70
2024/01/19 05:53:42;;;;;;;5.40;2.80;;;;;;;5.50;65.74;99119.11;107528;1264;58964;-60
2024/01/19 05:56:10;;;;;;;6.80;3.00;;;;;;;5.48;65.61;99124.46;104726;1261;60575;-64
2024/01/19 05:58:37;;;;;;;6.60;2.60;;;;;;;5.44;65.64;99135.78;104526;1262;64923;-63
2024/01/19 06:01:05;;;;;;;5.70;2.70;;;;;;;5.40;65.55;99139.69;104729;1261;61769;-69
2024/01/19 06:03:35;;;;;;;6.50;2.70;;;;;;;5.38;65.47;99142.14;105094;1266;63764;-65
2024/01/19 06:06:03;;;;;;;9.30;3.40;;;;;;;5.34;65.48;99147.17;104645;1264;60719;-68
2024/01/19 06:08:32;;;;;;;7.90;3.80;;;;;;;5.22;65.62;99150.19;104543;1260;60460;-66
2024/01/19 06:10:59;;;;;;;6.60;2.60;;;;;;;5.13;65.69;99157.77;108737;1261;64955;-69
2024/01/19 06:13:27;;;;;;;7.50;3.00;;;;;;;5.15;65.55;99166.83;108777;1261;61474;-64
2024/01/19 06:15:54;;;;;;;5.70;2.40;;;;;;;5.10;65.56;99179.05;108701;1261;62536;-65
2024/01/19 06:18:22;;;;;;;6.50;3.20;;;;;;;5.07;65.55;99187.33;108739;1259;58223;-64
2024/01/19 06:20:51;;;;;;;7.80;3.50;;;;;;;5.08;65.41;99192.09;108763;1261;58361;-64
2024/01/19 06:23:20;;;;;;;7.50;3.40;;;;;;;5.08;65.30;99199.23;108770;1260;64681;-65
2024/01/19 06:25:47;;;;;;;4.30;1.90;;;;;;;4.99;65.42;99207.71;108744;1259;61332;-59
2024/01/19 06:28:15;;;;;;;7.20;3.20;;;;;;;4.96;65.41;99211.09;104738;1264;64265;-65
2024/01/19 06:30:44;;;;;;;6.20;2.10;;;;;;;4.95;65.41;99214.05;104893;1261;60470;-71
2024/01/19 06:33:12;;;;;;;8.90;3.20;;;;;;;4.92;65.51;99212.71;104831;1265;60437;-73
2024/01/19 06:35:40;;;;;;;6.00;2.60;;;;;;;4.83;65.71;99210.14;104882;1264;64989;-59
2024/01/19 06:38:08;;;;;;;6.00;2.80;;;;;;;4.81;65.70;99215.49;104999;1267;61366;-65
2024/01/19 06:40:36;;;;;;;7.80;3.20;;;;;;;4.83;65.68;99217.58;107557;1263;63785;-63
2024/01/19 06:43:03;;;;;;;6.90;2.80;;;;;;;4.87;65.67;99217.70;104903;1263;60515;-64
2024/01/19 06:45:31;;;;;;;7.60;3.30;;;;;;;4.83;65.81;99224.91;104856;1263;60476;-65
2024/01/19 06:47:58;;;;;;;8.50;3.30;;;;;;;4.77;66.07;99222.89;104838;1263;65337;-67
2024/01/19 06:50:26;;;;;;;11.40;3.70;;;;;;;4.78;66.15;99226.01;105316;1266;61350;-68
2024/01/19 06:52:54;;;;;;;7.70;3.30;;;;;;;4.79;66.26;99231.60;104958;1263;63268;-63
2024/01/19 06:55:24;;;;;;;10.30;3.10;;;;;;;4.80;66.57;99233.09;105194;1264;60708;-62
2024/01/19 06:57:52;;;;;;;10.50;4.70;;;;;;;4.79;66.72;99232.98;105326;1264;60924;-60
2024/01/19 07:00:20;;;;;;;8.60;4.40;;;;;;;4.81;66.67;99247.28;104810;1261;64948;-63
2024/01/19 07:02:47;;;;;;;7.90;3.30;;;;;;;4.83;66.62;99250.44;104892;1264;62539;-61
2024/01/19 07:05:15;;;;;;;10.40;3.70;;;;;;;4.85;66.56;99257.75;105113;1260;65975;-62
2024/01/19 07:07:43;;;;;;;7.10;2.80;;;;;;;4.82;66.58;99266.48;105042;1260;60502;-67
2024/01/19 07:10:11;;;;;;;7.70;3.80;;;;;;;4.79;66.55;99274.40;105123;1260;60475;-67
2024/01/19 07:12:38;;;;;;;9.40;4.20;;;;;;;4.80;66.35;99283.33;104961;1257;63777;-61
2024/01/19 07:15:08;;;;;;;9.60;3.70;;;;;;;4.82;66.16;99284.57;106362;1260;61219;-65
2024/01/19 07:17:36;;;;;;;12.30;4.40;;;;;;;4.80;66.19;99286.09;105630;1260;66116;-62
2024/01/19 07:20:05;;;;;;;10.20;4.10;;;;;;;4.79;66.25;99289.65;105169;1256;60610;-69
2024/01/19 07:22:33;;;;;;;9.10;4.90;;;;;;;4.82;66.15;99286.10;105644;1256;60477;-66
2024/01/19 07:25:01;;;;;;;9.40;3.80;;;;;;;4.83;66.01;99291.06;106534;1258;64933;-71
2024/01/19 07:27:28;;;;;;;10.60;4.60;;;;;;;4.83;66.19;99303.95;105020;1257;61309;-66
2024/01/19 07:29:56;;;;;;;8.60;3.20;;;;;;;4.79;66.28;99307.90;109002;1257;66476;-67
2024/01/19 07:32:25;;;;;;;9.60;4.20;;;;;;;4.80;66.20;99310.92;108964;1259;63046;-72
2024/01/19 07:34:53;;;;;;;11.20;4.30;;;;;;;4.84;66.14;99313.12;108998;1257;58102;-70
2024/01/19 07:37:21;;;;;;;9.40;4.30;;;;;;;4.82;65.94;99312.52;108920;1256;63667;-71
2024/01/19 07:39:48;;;;;;;9.20;4.50;;;;;;;4.76;65.69;99316.23;109011;1260;62243;-66
2024/01/19 07:42:16;;;;;;;10.10;4.70;;;;;;;4.73;65.53;99323.98;105350;1254;63116;-63
2024/01/19 07:44:44;;;;;;;8.60;4.90;;;;;;;4.75;65.42;99326.62;105453;1261;60520;-67
2024/01/19 07:47:13;;;;;;;10.40;5.30;;;;;;;4.69;65.60;99330.35;105084;1256;60367;-68
2024/01/19 07:49:41;;;;;;;8.30;4.90;;;;;;;4.63;65.81;99336.98;105106;1260;75083;-66
2024/01/19 07:52:08;;;;;;;11.00;5.20;;;;;;;4.68;65.77;99336.35;105051;1260;60523;-65
2024/01/19 07:54:36;;;;;;;11.90;4.60;;;;;;;4.69;65.74;99343.75;106365;1257;72290;-62
2024/01/19 07:57:03;;;;;;;14.60;7.10;;;;;;;4.60;65.97;99357.56;105051;1260;60899;-65
2024/01/19 07:59:31;;;;;;;11.20;6.00;;;;;;;4.58;65.95;99360.31;105192;1257;61761;-66
2024/01/19 08:02:00;;;;;;;14.70;5.80;;;;;;;4.56;65.92;99362.38;105113;1257;64015;-60
2024/01/19 08:04:28;;;;;;;13.50;6.50;;;;;;;4.50;65.91;99373.21;105075;1262;62516;-66
2024/01/19 08:06:55;;;;;;;8.90;5.10;;;;;;;4.50;65.83;99376.55;105097;1257;74900;-69
2024/01/19 08:09:23;;;;;;;12.70;6.10;;;;;;;4.53;65.73;99381.38;105807;1257;61517;-68
2024/01/19 08:11:51;;;;;;;10.20;5.10;;;;;;;4.53;65.52;99382.70;104858;1255;62055;-64
2024/01/19 08:14:19;;;;;;;10.50;5.40;;;;;;;4.47;65.31;99385.39;105209;1257;75562;-64
2024/01/19 08:16:46;;;;;;;15.00;6.80;;;;;;;4.46;65.13;99393.29;105092;1260;71337;-69
2024/01/19 08:19:14;;;;;;;14.70;6.80;;;;;;;4.50;64.84;99392.63;105098;1257;73651;-70
2024/01/19 08:21:43;;;;;;;14.20;6.10;;;;;;;4.50;64.72;99397.17;105451;1258;60454;-68
2024/01/19 08:24:12;;;;;;;11.50;7.10;;;;;;;4.48;64.66;99399.93;105461;1259;62192;-64
2024/01/19 08:26:39;;;;;;;8.20;5.00;;;;;;;4.40;64.39;99405.14;105369;1257;67662;-67
2024/01/19 08:29:07;;;;;;;11.90;5.40;;;;;;;4.41;63.92;99412.61;105011;1257;71735;-63
2024/01/19 08:31:34;;;;;;;13.10;6.90;;;;;;;4.36;63.55;99417.41;105231;1260;73749;-71
2024/01/19 08:34:02;;;;;;;12.80;6.80;;;;;;;4.35;63.34;99426.52;105268;1257;60502;-68
2024/01/19 08:36:30;;;;;;;14.00;6.10;;;;;;;4.28;63.08;99431.66;105222;1257;61171;-74
2024/01/19 08:38:58;;;;;;;12.10;6.40;;;;;;;4.31;62.90;99438.77;105076;1260;75564;-64
2024/01/19 08:41:27;;;;;;;12.10;6.40;;;;;;;4.31;62.90;99437.37;105246;1257;63643;-65
2024/01/19 08:43:55;;;;;;;15.80;6.70;;;;;;;4.29;62.90;99443.27;105096;1260;75198;-68
2024/01/19 08:46:25;;;;;;;11.40;5.40;;;;;;;4.23;62.94;99442.98;105150;1256;60454;-64
2024/01/19 08:48:52;;;;;;;12.00;4.70;;;;;;;4.25;62.90;99449.10;105156;1261;60457;-64
2024/01/19 08:51:20;;;;;;;11.90;6.70;;;;;;;4.29;62.90;99454.21;105097;1260;76037;-65
2024/01/19 08:53:48;;;;;;;16.10;6.00;;;;;;;4.25;62.84;99459.36;105220;1260;71424;-66
2024/01/19 08:56:20;;;;;;;13.10;5.80;;;;;;;4.19;62.82;99456.98;105344;1256;73657;-66
2024/01/19 08:58:49;;;;;;;14.30;7.30;;;;;;;4.20;62.50;99462.77;105245;1257;61993;-68
2024/01/19 09:01:19;;;;;;;14.50;6.10;;;;;;;4.21;62.33;99462.02;105357;1257;60367;-62
2024/01/19 09:03:47;;;;;;;17.40;7.80;;;;;;;4.20;62.41;99464.21;104963;1260;67218;-58
2024/01/19 09:06:15;;;;;;;12.70;6.00;;;;;;;4.16;62.30;99466.19;104853;1257;63747;-65
2024/01/19 09:08:44;;;;;;;13.50;7.10;;;;;;;4.18;62.22;99468.10;105324;1260;74887;-64
2024/01/19 09:11:11;;;;;;;15.00;6.00;;;;;;;4.21;61.89;99475.02;105005;1257;60379;-59
2024/01/19 09:13:39;;;;;;;12.20;6.20;;;;;;;4.18;61.94;99483.22;105094;1258;60990;-64
2024/01/19 09:16:10;;;;;;;12.60;6.00;;;;;;;4.18;61.87;99490.70;105755;1258;76095;-58
2024/01/19 09:18:38;;;;;;;13.70;6.60;;;;;;;4.21;61.66;99496.75;105599;1257;72629;-60
2024/01/19 09:21:06;;;;;;;14.50;6.40;;;;;;;4.27;61.29;99500.71;105595;1257;74902;-60
2024/01/19 09:23:34;;;;;;;15.90;6.40;;;;;;;4.34;61.16;99512.52;105109;1256;60486;-59
2024/01/19 09:26:02;;;;;;;10.70;5.40;;;;;;;4.35;61.03;99520.27;105200;1257;60600;-59
2024/01/19 09:28:29;;;;;;;13.50;5.50;;;;;;;4.41;60.92;99525.44;105177;1257;65092;-60
2024/01/19 09:30:57;;;;;;;14.00;6.30;;;;;;;4.41;60.42;99527.89;105125;1259;71432;-61
2024/01/19 09:33:24;;;;;;;15.60;6.60;;;;;;;4.49;59.95;99536.88;105281;1258;74877;-60
2024/01/19 09:35:52;;;;;;;15.00;8.00;;;;;;;4.51;59.90;99531.90;105294;1260;61327;-59
2024/01/19 09:38:23;;;;;;;13.20;7.70;;;;;;;4.47;59.59;99534.95;105199;1257;62254;-63
2024/01/19 09:40:52;;;;;;;11.80;5.60;;;;;;;4.44;59.72;99536.38;105220;1260;67369;-59
2024/01/19 09:43:19;;;;;;;14.50;7.30;;;;;;;4.44;59.68;99540.03;105115;1262;72798;-59
2024/01/19 09:45:48;;;;;;;12.40;6.40;;;;;;;4.42;59.11;99544.45;104972;1262;63007;-62
2024/01/19 09:48:22;;;;;;;11.80;6.00;;;;;;;4.35;58.74;99548.40;105088;1261;60492;-60
2024/01/19 09:50:51;;;;;;;13.00;6.80;;;;;;;4.26;58.48;99545.23;105368;1260;60544;-65
2024/01/19 09:53:23;;;;;;;12.50;6.30;;;;;;;4.17;58.30;99547.89;105127;1258;76475;-63
2024/01/19 09:55:50;;;;;;;12.40;6.50;;;;;;;4.14;58.25;99548.57;105363;1258;70613;-60
2024/01/19 09:58:22;;;;;;;17.20;6.70;;;;;;;4.15;58.26;99551.32;105152;1259;62744;-63
2024/01/19 10:00:51;;;;;;;13.80;6.10;;;;;;;4.09;58.30;99548.25;105126;1257;60604;-58
2024/01/19 10:03:19;;;;;;;15.00;7.50;;;;;;;4.06;58.22;99550.35;108938;1256;61055;-59
2024/01/19 10:05:48;;;;;;;15.50;7.40;;;;;;;4.04;58.28;99555.83;109063;1255;76070;-59
2024/01/19 10:08:17;;;;;;;11.70;5.00;;;;;;;4.12;58.08;99552.71;108933;1257;72305;-61
2024/01/19 10:10:45;;;;;;;11.20;5.70;;;;;;;4.19;58.17;99558.36;108858;1257;65569;-61
2024/01/19 10:13:13;;;;;;;13.90;7.00;;;;;;;4.19;57.84;99556.77;109019;1256;61619;-61
2024/01/19 10:15:42;;;;;;;17.10;7.40;;;;;;;4.21;57.94;99562.37;106206;1260;60984;-59
2024/01/19 10:18:10;;;;;;;15.70;6.60;;;;;;;4.23;58.08;99563.94;108981;1256;74670;-60
2024/01/19 10:20:38;;;;;;;15.00;6.60;;;;;;;4.30;58.13;99570.09;109020;1256;60391;-64
2024/01/19 10:23:22;;;;;;;13.10;6.70;;;;;;;4.28;58.15;99568.69;108918;1256;63933;-63
2024/01/19 10:25:51;;;;;;;17.90;7.40;;;;;;;4.32;58.31;99575.71;108963;1256;61841;-60
2024/01/19 10:28:29;;;;;;;12.60;4.80;;;;;;;4.26;58.19;99576.63;109086;1256;61436;-61
2024/01/19 10:31:17;;;;;;;18.40;7.70;;;;;;;4.29;57.75;99585.32;108803;1256;76187;-61
2024/01/19 10:33:49;;;;;;;12.00;5.70;;;;;;;4.29;57.17;99590.14;108983;1258;62431;-60
2024/01/19 10:36:18;;;;;;;9.70;4.00;;;;;;;4.32;57.01;99597.98;108958;1257;75332;-59
2024/01/19 10:38:45;;;;;;;13.50;6.00;;;;;;;4.27;56.75;99596.67;106253;1256;60428;-60
2024/01/19 10:41:17;;;;;;;13.00;6.80;;;;;;;4.33;56.58;99601.01;105474;1257;62106;-64
2024/01/19 10:43:44;;;;;;;13.70;6.20;;;;;;;4.29;56.26;99603.89;105575;1256;75940;-66
2024/01/19 10:46:20;;;;;;;12.90;5.50;;;;;;;4.31;55.82;99603.02;105149;1257;73016;-65
2024/01/19 10:48:50;;;;;;;12.20;5.70;;;;;;;4.34;55.69;99605.08;105289;1260;74016;-69
2024/01/19 10:51:19;;;;;;;11.00;5.00;;;;;;;4.31;54.98;99608.29;105314;1257;60559;-64
2024/01/19 10:53:48;;;;;;;13.40;5.20;;;;;;;4.32;54.89;99612.38;105194;1261;60655;-64
2024/01/19 10:56:20;;;;;;;11.30;5.30;;;;;;;4.32;54.65;99612.36;105277;1257;67670;-59
2024/01/19 10:58:48;;;;;;;13.90;6.20;;;;;;;4.31;54.34;99615.19;105206;1256;63766;-69
2024/01/19 11:01:17;;;;;;;13.10;4.90;;;;;;;4.28;54.13;99619.23;105343;1260;74086;-59
2024/01/19 11:03:44;;;;;;;12.20;5.30;;;;;;;4.33;53.88;99632.05;105412;1255;60578;-60
2024/01/19 11:06:12;;;;;;;9.70;3.70;;;;;;;4.29;53.16;99633.90;105116;1257;62464;-63
2024/01/19 11:08:40;;;;;;;9.20;3.60;;;;;;;4.30;53.08;99637.88;105224;1258;76060;-59
2024/01/19 11:11:09;;;;;;;9.50;4.30;;;;;;;4.24;53.38;99645.13;105585;1257;70504;-62
2024/01/19 11:13:40;;;;;;;11.90;4.30;;;;;;;4.25;53.78;99650.12;105511;1256;73422;-62
2024/01/19 11:16:12;;;;;;;9.50;4.50;;;;;;;4.24;53.93;99654.88;105126;1260;60509;-60
2024/01/19 11:18:40;;;;;;;15.60;4.60;;;;;;;4.22;53.64;99651.87;105642;1258;60440;-66
2024/01/19 11:21:07;;;;;;;10.30;3.90;;;;;;;4.31;53.22;99655.15;105077;1257;65273;-66
2024/01/19 11:23:37;;;;;;;12.10;4.80;;;;;;;4.28;52.82;99654.95;105702;1257;63530;-59
2024/01/19 11:26:08;;;;;;;10.10;3.80;;;;;;;4.20;52.29;99660.37;105454;1257;64833;-58
2024/01/19 11:28:49;;;;;;;7.30;3.20;;;;;;;4.19;52.62;99669.80;104969;1257;60537;-60
2024/01/19 11:31:32;;;;;;;12.60;4.50;;;;;;;4.15;52.68;99672.84;105102;1257;60345;-62
2024/01/19 11:34:00;;;;;;;9.60;4.00;;;;;;;4.14;52.61;99676.55;105051;1256;76031;-63
2024/01/19 11:36:38;;;;;;;7.80;3.30;;;;;;;4.08;52.21;99674.31;104986;1257;60646;-64
2024/01/19 11:39:09;;;;;;;10.80;5.00;;;;;;;4.02;51.92;99680.95;105658;1257;64320;-66
2024/01/19 11:41:37;;;;;;;7.80;3.00;;;;;;;3.98;52.16;99679.49;105618;1259;60381;-66